sensor_id;sensor_type;location;lat;lon;timestamp;P1;durP1;ratioP1;P2;durP2;ratioP2
7783;SDS011;19359;51.402;6.778;2022-10-16T00:00:42;4.53;;;3.35;;
7783;SDS011;19359;51.402;6.778;2022-10-16T00:03:09;5.43;;;2.45;;
7783;SDS011;19359;51.402;6.778;2022-10-16T00:05:40;6.45;;;2.97;;
7783;SDS011;19359;51.402;6.778;2022-10-16T00:08:09;7.47;;;3.42;;
7783;SDS011;19359;51.402;6.778;2022-10-16T00:10:37;4.15;;;2.28;;
7783;SDS011;19359;51.402;6.778;2022-10-16T00:13:05;3.40;;;3.15;;
7783;SDS011;19359;51.402;6.778;2022-10-16T00:15:33;3.50;;;3.17;;
7783;SDS011;19359;51.402;6.778;2022-10-16T00:18:01;3.60;;;3.00;;
7783;SDS011;19359;51.402;6.778;2022-10-16T00:20:28;4.55;;;2.58;;
7783;SDS011;19359;51.402;6.778;2022-10-16T00:22:56;7.93;;;3.15;;
7783;SDS011;19359;51.402;6.778;2022-10-16T00:25:23;8.00;;;2.60;;
7783;SDS011;19359;51.402;6.778;2022-10-16T00:27:50;3.67;;;3.38;;
7783;SDS011;19359;51.402;6.778;2022-10-16T00:30:18;4.20;;;2.38;;
7783;SDS011;19359;51.402;6.778;2022-10-16T00:32:44;2.95;;;2.53;;
7783;SDS011;19359;51.402;6.778;2022-10-16T00:35:11;7.57;;;4.10;;
7783;SDS011;19359;51.402;6.778;2022-10-16T00:37:38;3.15;;;2.88;;
7783;SDS011;19359;51.402;6.778;2022-10-16T00:40:05;4.38;;;2.88;;
7783;SDS011;19359;51.402;6.778;2022-10-16T00:42:33;3.40;;;3.20;;
7783;SDS011;19359;51.402;6.778;2022-10-16T00:44:59;4.70;;;3.58;;
7783;SDS011;19359;51.402;6.778;2022-10-16T00:47:29;4.38;;;3.58;;
7783;SDS011;19359;51.402;6.778;2022-10-16T00:50:00;4.28;;;3.75;;
7783;SDS011;19359;51.402;6.778;2022-10-16T00:52:31;12.48;;;4.28;;
7783;SDS011;19359;51.402;6.778;2022-10-16T00:54:59;6.32;;;5.03;;
7783;SDS011;19359;51.402;6.778;2022-10-16T00:57:27;8.80;;;5.57;;
7783;SDS011;19359;51.402;6.778;2022-10-16T00:59:54;6.80;;;5.50;;
7783;SDS011;19359;51.402;6.778;2022-10-16T01:02:22;14.85;;;6.55;;
7783;SDS011;19359;51.402;6.778;2022-10-16T01:04:51;10.95;;;7.05;;
7783;SDS011;19359;51.402;6.778;2022-10-16T01:07:20;8.43;;;6.55;;
7783;SDS011;19359;51.402;6.778;2022-10-16T01:10:02;9.80;;;7.25;;
7783;SDS011;19359;51.402;6.778;2022-10-16T01:12:40;16.88;;;6.63;;
7783;SDS011;19359;51.402;6.778;2022-10-16T01:15:12;6.70;;;6.15;;
7783;SDS011;19359;51.402;6.778;2022-10-16T01:17:45;10.10;;;6.47;;
7783;SDS011;19359;51.402;6.778;2022-10-16T01:20:22;8.60;;;6.68;;
7783;SDS011;19359;51.402;6.778;2022-10-16T01:22:58;8.80;;;6.15;;
7783;SDS011;19359;51.402;6.778;2022-10-16T01:25:34;6.43;;;5.28;;
7783;SDS011;19359;51.402;6.778;2022-10-16T01:28:11;6.75;;;5.43;;
7783;SDS011;19359;51.402;6.778;2022-10-16T01:30:40;10.73;;;6.07;;
7783;SDS011;19359;51.402;6.778;2022-10-16T01:33:10;7.25;;;5.53;;
7783;SDS011;19359;51.402;6.778;2022-10-16T01:35:42;5.30;;;4.88;;
7783;SDS011;19359;51.402;6.778;2022-10-16T01:38:12;8.70;;;4.80;;
7783;SDS011;19359;51.402;6.778;2022-10-16T01:40:44;9.25;;;5.53;;
7783;SDS011;19359;51.402;6.778;2022-10-16T01:43:15;11.05;;;6.53;;
7783;SDS011;19359;51.402;6.778;2022-10-16T01:45:45;7.85;;;6.32;;
7783;SDS011;19359;51.402;6.778;2022-10-16T01:48:14;7.40;;;6.22;;
7783;SDS011;19359;51.402;6.778;2022-10-16T01:50:44;10.95;;;7.22;;
7783;SDS011;19359;51.402;6.778;2022-10-16T01:53:20;11.32;;;6.90;;
7783;SDS011;19359;51.402;6.778;2022-10-16T01:55:48;8.15;;;6.80;;
7783;SDS011;19359;51.402;6.778;2022-10-16T01:58:16;8.18;;;6.00;;
7783;SDS011;19359;51.402;6.778;2022-10-16T02:00:44;6.60;;;4.95;;
7783;SDS011;19359;51.402;6.778;2022-10-16T02:03:14;5.50;;;4.38;;
7783;SDS011;19359;51.402;6.778;2022-10-16T02:05:45;4.90;;;3.20;;
7783;SDS011;19359;51.402;6.778;2022-10-16T02:08:13;2.67;;;2.55;;
7783;SDS011;19359;51.402;6.778;2022-10-16T02:10:40;4.43;;;2.17;;
7783;SDS011;19359;51.402;6.778;2022-10-16T02:13:08;9.32;;;1.92;;
7783;SDS011;19359;51.402;6.778;2022-10-16T02:15:39;2.75;;;1.45;;
7783;SDS011;19359;51.402;6.778;2022-10-16T02:18:06;8.75;;;1.55;;
7783;SDS011;19359;51.402;6.778;2022-10-16T02:20:37;4.00;;;1.67;;
7783;SDS011;19359;51.402;6.778;2022-10-16T02:23:12;5.07;;;2.10;;
7783;SDS011;19359;51.402;6.778;2022-10-16T02:25:44;9.07;;;1.95;;
7783;SDS011;19359;51.402;6.778;2022-10-16T02:28:14;3.63;;;1.45;;
7783;SDS011;19359;51.402;6.778;2022-10-16T02:30:46;2.28;;;1.17;;
7783;SDS011;19359;51.402;6.778;2022-10-16T02:33:17;5.13;;;1.45;;
7783;SDS011;19359;51.402;6.778;2022-10-16T02:35:46;2.15;;;1.80;;
7783;SDS011;19359;51.402;6.778;2022-10-16T02:38:15;2.65;;;1.58;;
7783;SDS011;19359;51.402;6.778;2022-10-16T02:40:43;3.63;;;1.63;;
7783;SDS011;19359;51.402;6.778;2022-10-16T02:43:10;6.97;;;1.60;;
7783;SDS011;19359;51.402;6.778;2022-10-16T02:45:37;2.20;;;1.60;;
7783;SDS011;19359;51.402;6.778;2022-10-16T02:48:05;1.33;;;1.23;;
7783;SDS011;19359;51.402;6.778;2022-10-16T02:50:32;6.57;;;1.67;;
7783;SDS011;19359;51.402;6.778;2022-10-16T02:52:59;2.63;;;1.10;;
7783;SDS011;19359;51.402;6.778;2022-10-16T02:55:26;2.25;;;1.55;;
7783;SDS011;19359;51.402;6.778;2022-10-16T02:57:53;1.35;;;1.25;;
7783;SDS011;19359;51.402;6.778;2022-10-16T03:00:21;1.45;;;1.33;;
7783;SDS011;19359;51.402;6.778;2022-10-16T03:02:48;4.28;;;1.13;;
7783;SDS011;19359;51.402;6.778;2022-10-16T03:05:16;4.20;;;1.58;;
7783;SDS011;19359;51.402;6.778;2022-10-16T03:07:43;1.35;;;1.27;;
7783;SDS011;19359;51.402;6.778;2022-10-16T03:10:09;3.50;;;1.45;;
7783;SDS011;19359;51.402;6.778;2022-10-16T03:12:36;3.30;;;1.50;;
7783;SDS011;19359;51.402;6.778;2022-10-16T03:15:03;1.67;;;1.42;;
7783;SDS011;19359;51.402;6.778;2022-10-16T03:17:31;1.85;;;1.30;;
7783;SDS011;19359;51.402;6.778;2022-10-16T03:19:59;2.80;;;1.50;;
7783;SDS011;19359;51.402;6.778;2022-10-16T03:22:27;2.38;;;1.23;;
7783;SDS011;19359;51.402;6.778;2022-10-16T03:24:54;2.25;;;1.23;;
7783;SDS011;19359;51.402;6.778;2022-10-16T03:27:20;1.35;;;1.02;;
7783;SDS011;19359;51.402;6.778;2022-10-16T03:29:47;1.08;;;1.00;;
7783;SDS011;19359;51.402;6.778;2022-10-16T03:32:14;4.22;;;1.08;;
7783;SDS011;19359;51.402;6.778;2022-10-16T03:34:40;3.63;;;1.00;;
7783;SDS011;19359;51.402;6.778;2022-10-16T03:37:07;1.77;;;0.80;;
7783;SDS011;19359;51.402;6.778;2022-10-16T03:39:35;2.28;;;1.10;;
7783;SDS011;19359;51.402;6.778;2022-10-16T03:42:02;0.90;;;0.90;;
7783;SDS011;19359;51.402;6.778;2022-10-16T03:44:29;1.98;;;0.60;;
7783;SDS011;19359;51.402;6.778;2022-10-16T03:46:56;2.60;;;0.80;;
7783;SDS011;19359;51.402;6.778;2022-10-16T03:49:22;1.13;;;1.08;;
7783;SDS011;19359;51.402;6.778;2022-10-16T03:51:49;0.70;;;0.70;;
7783;SDS011;19359;51.402;6.778;2022-10-16T03:54:16;3.45;;;1.05;;
7783;SDS011;19359;51.402;6.778;2022-10-16T03:56:44;4.00;;;0.85;;
7783;SDS011;19359;51.402;6.778;2022-10-16T03:59:10;0.60;;;0.60;;
7783;SDS011;19359;51.402;6.778;2022-10-16T04:01:37;0.85;;;0.70;;
7783;SDS011;19359;51.402;6.778;2022-10-16T04:04:04;0.60;;;0.60;;
7783;SDS011;19359;51.402;6.778;2022-10-16T04:06:30;0.75;;;0.75;;
7783;SDS011;19359;51.402;6.778;2022-10-16T04:08:57;1.25;;;0.60;;
7783;SDS011;19359;51.402;6.778;2022-10-16T04:11:24;3.50;;;0.80;;
7783;SDS011;19359;51.402;6.778;2022-10-16T04:13:52;3.20;;;0.90;;
7783;SDS011;19359;51.402;6.778;2022-10-16T04:16:18;4.13;;;1.77;;
7783;SDS011;19359;51.402;6.778;2022-10-16T04:18:45;2.00;;;0.95;;
7783;SDS011;19359;51.402;6.778;2022-10-16T04:21:12;1.55;;;0.60;;
7783;SDS011;19359;51.402;6.778;2022-10-16T04:23:39;2.80;;;0.90;;
7783;SDS011;19359;51.402;6.778;2022-10-16T04:26:05;3.22;;;1.08;;
7783;SDS011;19359;51.402;6.778;2022-10-16T04:28:32;0.82;;;0.82;;
7783;SDS011;19359;51.402;6.778;2022-10-16T04:31:00;2.80;;;0.70;;
7783;SDS011;19359;51.402;6.778;2022-10-16T04:33:30;1.10;;;0.75;;
7783;SDS011;19359;51.402;6.778;2022-10-16T04:35:57;1.25;;;0.65;;
7783;SDS011;19359;51.402;6.778;2022-10-16T04:38:24;0.70;;;0.70;;
7783;SDS011;19359;51.402;6.778;2022-10-16T04:40:51;0.82;;;0.65;;
7783;SDS011;19359;51.402;6.778;2022-10-16T04:43:17;2.58;;;0.90;;
7783;SDS011;19359;51.402;6.778;2022-10-16T04:45:44;0.68;;;0.68;;
7783;SDS011;19359;51.402;6.778;2022-10-16T04:48:13;2.75;;;0.90;;
7783;SDS011;19359;51.402;6.778;2022-10-16T04:50:39;0.80;;;0.80;;
7783;SDS011;19359;51.402;6.778;2022-10-16T04:53:07;2.70;;;0.90;;
7783;SDS011;19359;51.402;6.778;2022-10-16T04:55:33;0.88;;;0.88;;
7783;SDS011;19359;51.402;6.778;2022-10-16T04:58:01;2.88;;;1.08;;
7783;SDS011;19359;51.402;6.778;2022-10-16T05:00:27;0.60;;;0.50;;
7783;SDS011;19359;51.402;6.778;2022-10-16T05:02:54;1.65;;;0.90;;
7783;SDS011;19359;51.402;6.778;2022-10-16T05:05:23;4.28;;;1.27;;
7783;SDS011;19359;51.402;6.778;2022-10-16T05:07:50;2.05;;;0.95;;
7783;SDS011;19359;51.402;6.778;2022-10-16T05:10:16;1.65;;;0.70;;
7783;SDS011;19359;51.402;6.778;2022-10-16T05:12:43;0.98;;;0.98;;
7783;SDS011;19359;51.402;6.778;2022-10-16T05:15:10;2.95;;;1.08;;
7783;SDS011;19359;51.402;6.778;2022-10-16T05:17:37;0.80;;;0.80;;
7783;SDS011;19359;51.402;6.778;2022-10-16T05:20:04;2.97;;;0.98;;
7783;SDS011;19359;51.402;6.778;2022-10-16T05:22:32;0.68;;;0.68;;
7783;SDS011;19359;51.402;6.778;2022-10-16T05:24:59;1.30;;;0.80;;
7783;SDS011;19359;51.402;6.778;2022-10-16T05:27:26;0.73;;;0.73;;
7783;SDS011;19359;51.402;6.778;2022-10-16T05:29:53;1.80;;;0.60;;
7783;SDS011;19359;51.402;6.778;2022-10-16T05:32:19;0.73;;;0.73;;
7783;SDS011;19359;51.402;6.778;2022-10-16T05:34:46;2.75;;;0.70;;
7783;SDS011;19359;51.402;6.778;2022-10-16T05:37:13;1.70;;;0.90;;
7783;SDS011;19359;51.402;6.778;2022-10-16T05:39:41;2.40;;;0.80;;
7783;SDS011;19359;51.402;6.778;2022-10-16T05:42:08;1.17;;;0.60;;
7783;SDS011;19359;51.402;6.778;2022-10-16T05:44:34;5.05;;;1.00;;
7783;SDS011;19359;51.402;6.778;2022-10-16T05:47:01;1.73;;;1.00;;
7783;SDS011;19359;51.402;6.778;2022-10-16T05:49:28;0.98;;;0.82;;
7783;SDS011;19359;51.402;6.778;2022-10-16T05:51:54;4.18;;;1.23;;
7783;SDS011;19359;51.402;6.778;2022-10-16T05:54:21;1.02;;;1.02;;
7783;SDS011;19359;51.402;6.778;2022-10-16T05:56:49;0.73;;;0.73;;
7783;SDS011;19359;51.402;6.778;2022-10-16T05:59:16;3.28;;;0.95;;
7783;SDS011;19359;51.402;6.778;2022-10-16T06:01:42;0.90;;;0.90;;
7783;SDS011;19359;51.402;6.778;2022-10-16T06:04:09;3.70;;;1.00;;
7783;SDS011;19359;51.402;6.778;2022-10-16T06:06:36;3.03;;;1.20;;
7783;SDS011;19359;51.402;6.778;2022-10-16T06:09:03;1.15;;;0.93;;
7783;SDS011;19359;51.402;6.778;2022-10-16T06:11:30;7.05;;;1.38;;
7783;SDS011;19359;51.402;6.778;2022-10-16T06:14:01;1.55;;;0.90;;
7783;SDS011;19359;51.402;6.778;2022-10-16T06:16:31;3.90;;;1.00;;
7783;SDS011;19359;51.402;6.778;2022-10-16T06:18:59;4.15;;;1.40;;
7783;SDS011;19359;51.402;6.778;2022-10-16T06:21:26;3.55;;;2.08;;
7783;SDS011;19359;51.402;6.778;2022-10-16T06:23:54;1.55;;;0.98;;
7783;SDS011;19359;51.402;6.778;2022-10-16T06:26:23;4.85;;;1.08;;
7783;SDS011;19359;51.402;6.778;2022-10-16T06:28:51;1.33;;;1.23;;
7783;SDS011;19359;51.402;6.778;2022-10-16T06:31:21;0.88;;;0.88;;
7783;SDS011;19359;51.402;6.778;2022-10-16T06:33:52;1.67;;;1.27;;
7783;SDS011;19359;51.402;6.778;2022-10-16T06:36:19;1.30;;;1.20;;
7783;SDS011;19359;51.402;6.778;2022-10-16T06:38:47;6.35;;;1.00;;
7783;SDS011;19359;51.402;6.778;2022-10-16T06:41:14;1.05;;;1.05;;
7783;SDS011;19359;51.402;6.778;2022-10-16T06:43:42;1.80;;;0.88;;
7783;SDS011;19359;51.402;6.778;2022-10-16T06:46:10;1.23;;;0.90;;
7783;SDS011;19359;51.402;6.778;2022-10-16T06:48:39;4.00;;;1.00;;
7783;SDS011;19359;51.402;6.778;2022-10-16T06:51:08;1.30;;;0.70;;
7783;SDS011;19359;51.402;6.778;2022-10-16T06:53:37;1.30;;;1.17;;
7783;SDS011;19359;51.402;6.778;2022-10-16T06:56:08;2.03;;;0.82;;
7783;SDS011;19359;51.402;6.778;2022-10-16T06:58:35;1.98;;;1.15;;
7783;SDS011;19359;51.402;6.778;2022-10-16T07:01:02;1.88;;;1.33;;
7783;SDS011;19359;51.402;6.778;2022-10-16T07:03:28;1.10;;;1.10;;
7783;SDS011;19359;51.402;6.778;2022-10-16T07:05:57;1.30;;;1.00;;
7783;SDS011;19359;51.402;6.778;2022-10-16T07:08:27;0.80;;;0.80;;
7783;SDS011;19359;51.402;6.778;2022-10-16T07:10:57;1.77;;;1.08;;
7783;SDS011;19359;51.402;6.778;2022-10-16T07:13:25;0.88;;;0.88;;
7783;SDS011;19359;51.402;6.778;2022-10-16T07:15:52;4.88;;;1.92;;
7783;SDS011;19359;51.402;6.778;2022-10-16T07:18:18;1.27;;;1.10;;
7783;SDS011;19359;51.402;6.778;2022-10-16T07:20:45;5.32;;;0.80;;
7783;SDS011;19359;51.402;6.778;2022-10-16T07:23:13;2.70;;;0.90;;
7783;SDS011;19359;51.402;6.778;2022-10-16T07:25:40;1.33;;;1.00;;
7783;SDS011;19359;51.402;6.778;2022-10-16T07:28:06;1.02;;;1.00;;
7783;SDS011;19359;51.402;6.778;2022-10-16T07:30:34;3.70;;;1.13;;
7783;SDS011;19359;51.402;6.778;2022-10-16T07:33:02;1.52;;;0.98;;
7783;SDS011;19359;51.402;6.778;2022-10-16T07:35:28;3.72;;;1.20;;
7783;SDS011;19359;51.402;6.778;2022-10-16T07:37:55;0.90;;;0.90;;
7783;SDS011;19359;51.402;6.778;2022-10-16T07:40:23;1.27;;;0.80;;
7783;SDS011;19359;51.402;6.778;2022-10-16T07:42:52;1.45;;;1.30;;
7783;SDS011;19359;51.402;6.778;2022-10-16T07:45:18;1.48;;;1.10;;
7783;SDS011;19359;51.402;6.778;2022-10-16T07:47:45;1.48;;;0.95;;
7783;SDS011;19359;51.402;6.778;2022-10-16T07:50:12;1.30;;;0.98;;
7783;SDS011;19359;51.402;6.778;2022-10-16T07:52:38;1.48;;;0.85;;
7783;SDS011;19359;51.402;6.778;2022-10-16T07:55:05;1.48;;;1.00;;
7783;SDS011;19359;51.402;6.778;2022-10-16T07:57:34;5.13;;;1.15;;
7783;SDS011;19359;51.402;6.778;2022-10-16T08:00:00;1.80;;;0.80;;
7783;SDS011;19359;51.402;6.778;2022-10-16T08:02:27;1.25;;;1.15;;
7783;SDS011;19359;51.402;6.778;2022-10-16T08:04:55;1.50;;;0.98;;
7783;SDS011;19359;51.402;6.778;2022-10-16T08:07:21;4.32;;;0.85;;
7783;SDS011;19359;51.402;6.778;2022-10-16T08:09:48;1.00;;;0.88;;
7783;SDS011;19359;51.402;6.778;2022-10-16T08:12:16;6.80;;;1.10;;
7783;SDS011;19359;51.402;6.778;2022-10-16T08:14:44;1.23;;;1.23;;
7783;SDS011;19359;51.402;6.778;2022-10-16T08:17:13;1.63;;;1.00;;
7783;SDS011;19359;51.402;6.778;2022-10-16T08:19:43;1.13;;;0.70;;
7783;SDS011;19359;51.402;6.778;2022-10-16T08:22:11;1.02;;;0.95;;
7783;SDS011;19359;51.402;6.778;2022-10-16T08:24:37;3.35;;;0.85;;
7783;SDS011;19359;51.402;6.778;2022-10-16T08:27:04;2.13;;;0.60;;
7783;SDS011;19359;51.402;6.778;2022-10-16T08:29:31;2.40;;;0.82;;
7783;SDS011;19359;51.402;6.778;2022-10-16T08:31:59;1.38;;;0.60;;
7783;SDS011;19359;51.402;6.778;2022-10-16T08:34:26;1.95;;;1.10;;
7783;SDS011;19359;51.402;6.778;2022-10-16T08:36:53;5.05;;;0.73;;
7783;SDS011;19359;51.402;6.778;2022-10-16T08:39:20;0.65;;;0.65;;
7783;SDS011;19359;51.402;6.778;2022-10-16T08:42:07;0.55;;;0.55;;
7783;SDS011;19359;51.402;6.778;2022-10-16T08:45:08;2.10;;;1.00;;
7783;SDS011;19359;51.402;6.778;2022-10-16T08:48:03;0.50;;;0.50;;
7783;SDS011;19359;51.402;6.778;2022-10-16T08:50:40;5.07;;;0.88;;
7783;SDS011;19359;51.402;6.778;2022-10-16T08:53:09;0.80;;;0.70;;
7783;SDS011;19359;51.402;6.778;2022-10-16T08:55:41;2.17;;;0.88;;
7783;SDS011;19359;51.402;6.778;2022-10-16T08:58:10;1.58;;;1.48;;
7783;SDS011;19359;51.402;6.778;2022-10-16T09:00:39;5.15;;;1.90;;
7783;SDS011;19359;51.402;6.778;2022-10-16T09:03:11;3.25;;;1.90;;
7783;SDS011;19359;51.402;6.778;2022-10-16T09:05:50;1.75;;;1.02;;
7783;SDS011;19359;51.402;6.778;2022-10-16T09:08:37;2.33;;;0.90;;
7783;SDS011;19359;51.402;6.778;2022-10-16T09:11:12;1.52;;;1.08;;
7783;SDS011;19359;51.402;6.778;2022-10-16T09:13:48;1.63;;;1.10;;
7783;SDS011;19359;51.402;6.778;2022-10-16T09:16:19;0.63;;;0.60;;
7783;SDS011;19359;51.402;6.778;2022-10-16T09:18:54;0.60;;;0.52;;
7783;SDS011;19359;51.402;6.778;2022-10-16T09:21:26;0.88;;;0.63;;
7783;SDS011;19359;51.402;6.778;2022-10-16T09:23:57;0.80;;;0.80;;
7783;SDS011;19359;51.402;6.778;2022-10-16T09:26:30;1.15;;;0.95;;
7783;SDS011;19359;51.402;6.778;2022-10-16T09:28:57;4.10;;;1.75;;
7783;SDS011;19359;51.402;6.778;2022-10-16T09:31:24;3.90;;;1.25;;
7783;SDS011;19359;51.402;6.778;2022-10-16T09:33:53;2.50;;;1.35;;
7783;SDS011;19359;51.402;6.778;2022-10-16T09:36:23;2.97;;;0.93;;
7783;SDS011;19359;51.402;6.778;2022-10-16T09:39:01;1.45;;;1.08;;
7783;SDS011;19359;51.402;6.778;2022-10-16T09:41:30;3.95;;;0.90;;
7783;SDS011;19359;51.402;6.778;2022-10-16T09:44:00;1.77;;;0.80;;
7783;SDS011;19359;51.402;6.778;2022-10-16T09:46:28;1.50;;;0.68;;
7783;SDS011;19359;51.402;6.778;2022-10-16T09:48:58;5.93;;;0.98;;
7783;SDS011;19359;51.402;6.778;2022-10-16T09:51:27;5.90;;;1.55;;
7783;SDS011;19359;51.402;6.778;2022-10-16T09:53:55;1.30;;;0.70;;
7783;SDS011;19359;51.402;6.778;2022-10-16T09:56:24;3.00;;;0.50;;
7783;SDS011;19359;51.402;6.778;2022-10-16T09:58:53;1.60;;;0.47;;
7783;SDS011;19359;51.402;6.778;2022-10-16T10:01:21;0.60;;;0.40;;
7783;SDS011;19359;51.402;6.778;2022-10-16T10:03:55;2.55;;;0.30;;
7783;SDS011;19359;51.402;6.778;2022-10-16T10:06:27;1.45;;;0.30;;
7783;SDS011;19359;51.402;6.778;2022-10-16T10:08:56;2.45;;;0.30;;
7783;SDS011;19359;51.402;6.778;2022-10-16T10:11:40;2.40;;;0.40;;
7783;SDS011;19359;51.402;6.778;2022-10-16T10:14:14;0.30;;;0.30;;
7783;SDS011;19359;51.402;6.778;2022-10-16T10:16:44;1.85;;;0.40;;
7783;SDS011;19359;51.402;6.778;2022-10-16T10:19:14;0.32;;;0.30;;
7783;SDS011;19359;51.402;6.778;2022-10-16T10:21:42;2.50;;;0.50;;
7783;SDS011;19359;51.402;6.778;2022-10-16T10:24:12;1.65;;;0.40;;
7783;SDS011;19359;51.402;6.778;2022-10-16T10:26:41;0.38;;;0.30;;
7783;SDS011;19359;51.402;6.778;2022-10-16T10:29:17;1.40;;;0.40;;
7783;SDS011;19359;51.402;6.778;2022-10-16T10:31:54;0.52;;;0.30;;
7783;SDS011;19359;51.402;6.778;2022-10-16T10:34:38;2.80;;;0.40;;
7783;SDS011;19359;51.402;6.778;2022-10-16T10:37:15;0.80;;;0.40;;
7783;SDS011;19359;51.402;6.778;2022-10-16T10:39:56;0.85;;;0.50;;
7783;SDS011;19359;51.402;6.778;2022-10-16T10:42:31;3.05;;;0.45;;
7783;SDS011;19359;51.402;6.778;2022-10-16T10:45:15;0.85;;;0.20;;
7783;SDS011;19359;51.402;6.778;2022-10-16T10:47:47;0.65;;;0.30;;
7783;SDS011;19359;51.402;6.778;2022-10-16T10:50:25;1.40;;;0.30;;
7783;SDS011;19359;51.402;6.778;2022-10-16T10:53:00;0.60;;;0.28;;
7783;SDS011;19359;51.402;6.778;2022-10-16T10:55:37;2.00;;;0.73;;
7783;SDS011;19359;51.402;6.778;2022-10-16T10:58:14;3.20;;;0.52;;
7783;SDS011;19359;51.402;6.778;2022-10-16T11:01:14;1.30;;;0.52;;
7783;SDS011;19359;51.402;6.778;2022-10-16T11:03:49;2.05;;;0.50;;
7783;SDS011;19359;51.402;6.778;2022-10-16T11:06:40;3.78;;;0.52;;
7783;SDS011;19359;51.402;6.778;2022-10-16T11:09:12;2.20;;;0.50;;
7783;SDS011;19359;51.402;6.778;2022-10-16T11:11:43;0.75;;;0.30;;
7783;SDS011;19359;51.402;6.778;2022-10-16T11:14:15;0.57;;;0.30;;
7783;SDS011;19359;51.402;6.778;2022-10-16T11:16:47;4.28;;;0.45;;
7783;SDS011;19359;51.402;6.778;2022-10-16T11:19:21;0.50;;;0.50;;
7783;SDS011;19359;51.402;6.778;2022-10-16T11:21:56;2.60;;;0.40;;
7783;SDS011;19359;51.402;6.778;2022-10-16T11:24:31;1.85;;;0.50;;
7783;SDS011;19359;51.402;6.778;2022-10-16T11:27:07;1.80;;;0.40;;
7783;SDS011;19359;51.402;6.778;2022-10-16T11:29:40;2.05;;;0.38;;
7783;SDS011;19359;51.402;6.778;2022-10-16T11:32:15;1.05;;;0.30;;
7783;SDS011;19359;51.402;6.778;2022-10-16T11:34:47;1.65;;;0.68;;
7783;SDS011;19359;51.402;6.778;2022-10-16T11:37:19;1.27;;;0.25;;
7783;SDS011;19359;51.402;6.778;2022-10-16T11:39:52;1.45;;;0.40;;
7783;SDS011;19359;51.402;6.778;2022-10-16T11:42:25;1.67;;;0.30;;
7783;SDS011;19359;51.402;6.778;2022-10-16T11:45:00;1.50;;;0.38;;
7783;SDS011;19359;51.402;6.778;2022-10-16T11:47:34;0.73;;;0.45;;
7783;SDS011;19359;51.402;6.778;2022-10-16T11:50:06;2.55;;;0.45;;
7783;SDS011;19359;51.402;6.778;2022-10-16T11:52:40;0.95;;;0.30;;
7783;SDS011;19359;51.402;6.778;2022-10-16T11:55:13;4.22;;;0.45;;
7783;SDS011;19359;51.402;6.778;2022-10-16T11:57:43;1.40;;;0.57;;
7783;SDS011;19359;51.402;6.778;2022-10-16T12:00:18;0.70;;;0.50;;
7783;SDS011;19359;51.402;6.778;2022-10-16T12:02:50;1.88;;;0.40;;
7783;SDS011;19359;51.402;6.778;2022-10-16T12:05:25;0.45;;;0.40;;
7783;SDS011;19359;51.402;6.778;2022-10-16T12:08:06;1.55;;;0.45;;
7783;SDS011;19359;51.402;6.778;2022-10-16T12:10:36;0.73;;;0.40;;
7783;SDS011;19359;51.402;6.778;2022-10-16T12:13:03;0.57;;;0.40;;
7783;SDS011;19359;51.402;6.778;2022-10-16T12:15:31;2.00;;;0.40;;
7783;SDS011;19359;51.402;6.778;2022-10-16T12:17:59;1.15;;;0.30;;
7783;SDS011;19359;51.402;6.778;2022-10-16T12:20:28;0.60;;;0.45;;
7783;SDS011;19359;51.402;6.778;2022-10-16T12:22:57;0.52;;;0.30;;
7783;SDS011;19359;51.402;6.778;2022-10-16T12:25:29;6.55;;;1.27;;
7783;SDS011;19359;51.402;6.778;2022-10-16T12:27:59;1.85;;;0.52;;
7783;SDS011;19359;51.402;6.778;2022-10-16T12:30:31;0.75;;;0.30;;
7783;SDS011;19359;51.402;6.778;2022-10-16T12:33:01;4.32;;;0.65;;
7783;SDS011;19359;51.402;6.778;2022-10-16T12:35:30;1.67;;;0.40;;
7783;SDS011;19359;51.402;6.778;2022-10-16T12:38:06;2.65;;;0.40;;
7783;SDS011;19359;51.402;6.778;2022-10-16T12:40:40;1.13;;;0.60;;
7783;SDS011;19359;51.402;6.778;2022-10-16T12:43:24;2.60;;;0.60;;
7783;SDS011;19359;51.402;6.778;2022-10-16T12:46:04;3.17;;;0.40;;
7783;SDS011;19359;51.402;6.778;2022-10-16T12:48:32;1.27;;;0.40;;
7783;SDS011;19359;51.402;6.778;2022-10-16T12:51:09;0.60;;;0.50;;
7783;SDS011;19359;51.402;6.778;2022-10-16T12:53:36;4.60;;;0.35;;
7783;SDS011;19359;51.402;6.778;2022-10-16T12:56:08;1.63;;;0.50;;
7783;SDS011;19359;51.402;6.778;2022-10-16T12:58:44;2.38;;;0.30;;
7783;SDS011;19359;51.402;6.778;2022-10-16T13:01:22;2.28;;;0.25;;
7783;SDS011;19359;51.402;6.778;2022-10-16T13:04:02;2.40;;;0.40;;
7783;SDS011;19359;51.402;6.778;2022-10-16T13:06:46;1.42;;;0.30;;
7783;SDS011;19359;51.402;6.778;2022-10-16T13:12:18;1.27;;;0.60;;
7783;SDS011;19359;51.402;6.778;2022-10-16T13:15:03;2.78;;;0.40;;
7783;SDS011;19359;51.402;6.778;2022-10-16T13:17:40;2.35;;;0.40;;
7783;SDS011;19359;51.402;6.778;2022-10-16T13:20:15;0.95;;;0.30;;
7783;SDS011;19359;51.402;6.778;2022-10-16T13:22:48;0.82;;;0.45;;
7783;SDS011;19359;51.402;6.778;2022-10-16T13:25:23;0.82;;;0.20;;
7783;SDS011;19359;51.402;6.778;2022-10-16T13:27:57;0.98;;;0.32;;
7783;SDS011;19359;51.402;6.778;2022-10-16T13:30:27;0.40;;;0.40;;
7783;SDS011;19359;51.402;6.778;2022-10-16T13:32:57;1.50;;;0.40;;
7783;SDS011;19359;51.402;6.778;2022-10-16T13:35:27;1.10;;;0.30;;
7783;SDS011;19359;51.402;6.778;2022-10-16T13:38:12;0.20;;;0.20;;
7783;SDS011;19359;51.402;6.778;2022-10-16T13:40:50;0.77;;;0.30;;
7783;SDS011;19359;51.402;6.778;2022-10-16T13:43:20;3.45;;;0.43;;
7783;SDS011;19359;51.402;6.778;2022-10-16T13:45:57;1.83;;;0.40;;
7783;SDS011;19359;51.402;6.778;2022-10-16T13:48:25;1.27;;;0.47;;
7783;SDS011;19359;51.402;6.778;2022-10-16T13:51:02;1.35;;;0.80;;
7783;SDS011;19359;51.402;6.778;2022-10-16T13:53:31;2.33;;;0.40;;
7783;SDS011;19359;51.402;6.778;2022-10-16T13:55:58;2.08;;;0.32;;
7783;SDS011;19359;51.402;6.778;2022-10-16T13:58:27;1.75;;;0.40;;
7783;SDS011;19359;51.402;6.778;2022-10-16T14:00:55;1.98;;;0.40;;
7783;SDS011;19359;51.402;6.778;2022-10-16T14:03:23;0.90;;;0.30;;
7783;SDS011;19359;51.402;6.778;2022-10-16T14:05:52;1.17;;;0.50;;
7783;SDS011;19359;51.402;6.778;2022-10-16T14:08:21;0.82;;;0.20;;
7783;SDS011;19359;51.402;6.778;2022-10-16T14:10:51;1.38;;;0.30;;
7783;SDS011;19359;51.402;6.778;2022-10-16T14:13:20;1.05;;;0.30;;
7783;SDS011;19359;51.402;6.778;2022-10-16T14:15:55;1.20;;;0.30;;
7783;SDS011;19359;51.402;6.778;2022-10-16T14:18:24;1.17;;;0.30;;
7783;SDS011;19359;51.402;6.778;2022-10-16T14:20:53;0.57;;;0.57;;
7783;SDS011;19359;51.402;6.778;2022-10-16T14:23:21;0.10;;;0.10;;
7783;SDS011;19359;51.402;6.778;2022-10-16T14:25:51;4.32;;;0.28;;
7783;SDS011;19359;51.402;6.778;2022-10-16T14:28:18;4.13;;;0.30;;
7783;SDS011;19359;51.402;6.778;2022-10-16T14:30:49;0.10;;;0.10;;
7783;SDS011;19359;51.402;6.778;2022-10-16T14:33:21;7.72;;;0.43;;
7783;SDS011;19359;51.402;6.778;2022-10-16T14:36:00;0.43;;;0.30;;
7783;SDS011;19359;51.402;6.778;2022-10-16T14:38:29;0.70;;;0.30;;
7783;SDS011;19359;51.402;6.778;2022-10-16T14:40:57;0.90;;;0.20;;
7783;SDS011;19359;51.402;6.778;2022-10-16T14:43:26;0.75;;;0.22;;
7783;SDS011;19359;51.402;6.778;2022-10-16T14:45:57;2.25;;;0.43;;
7783;SDS011;19359;51.402;6.778;2022-10-16T14:48:26;0.40;;;0.20;;
7783;SDS011;19359;51.402;6.778;2022-10-16T14:50:53;0.85;;;0.10;;
7783;SDS011;19359;51.402;6.778;2022-10-16T14:53:20;0.45;;;0.40;;
7783;SDS011;19359;51.402;6.778;2022-10-16T14:55:46;0.82;;;0.35;;
7783;SDS011;19359;51.402;6.778;2022-10-16T14:58:14;0.32;;;0.32;;
7783;SDS011;19359;51.402;6.778;2022-10-16T15:00:42;8.50;;;0.60;;
7783;SDS011;19359;51.402;6.778;2022-10-16T15:03:09;2.92;;;0.30;;
7783;SDS011;19359;51.402;6.778;2022-10-16T15:05:37;2.55;;;0.30;;
7783;SDS011;19359;51.402;6.778;2022-10-16T15:08:04;4.80;;;0.40;;
7783;SDS011;19359;51.402;6.778;2022-10-16T15:10:31;4.47;;;0.32;;
7783;SDS011;19359;51.402;6.778;2022-10-16T15:13:04;2.13;;;0.30;;
7783;SDS011;19359;51.402;6.778;2022-10-16T15:15:32;0.32;;;0.32;;
7783;SDS011;19359;51.402;6.778;2022-10-16T15:18:02;3.33;;;0.40;;
7783;SDS011;19359;51.402;6.778;2022-10-16T15:20:30;1.48;;;0.50;;